createdAt,value
2018-04-30T00:00:24.793Z,0.7
2018-04-30T00:01:26.406Z,0.4
2018-04-30T00:02:28.018Z,0.4
2018-04-30T00:03:29.636Z,0.4
2018-04-30T00:04:31.250Z,1.2
2018-04-30T00:05:32.868Z,0.4
2018-04-30T00:06:34.485Z,0.7
2018-04-30T00:07:36.102Z,0.4
2018-04-30T00:08:37.713Z,0.5
2018-04-30T00:09:39.330Z,0.5
2018-04-30T00:10:41.635Z,0.4
2018-04-30T00:11:43.254Z,0.5
2018-04-30T00:12:44.870Z,0.5
2018-04-30T00:13:46.482Z,0.4
2018-04-30T00:14:48.101Z,0.7
2018-04-30T00:15:49.709Z,0.4
2018-04-30T00:16:51.328Z,0.8
2018-04-30T00:17:52.937Z,0.4
2018-04-30T00:18:54.553Z,0.8
2018-04-30T00:19:56.170Z,0.7
2018-04-30T00:20:57.786Z,0.4
2018-04-30T00:21:59.408Z,0.4
2018-04-30T00:23:01.020Z,0.4
2018-04-30T00:24:02.637Z,0.4
2018-04-30T00:25:04.251Z,0.4
2018-04-30T00:26:05.871Z,0.7
2018-04-30T00:27:07.476Z,0.4
2018-04-30T00:28:09.096Z,0.6
2018-04-30T00:29:10.710Z,0.4
2018-04-30T00:30:12.324Z,0.9
2018-04-30T00:31:13.944Z,0.6
2018-04-30T00:32:15.548Z,0.9
2018-04-30T00:33:17.163Z,0.4
2018-04-30T00:34:18.777Z,0.4
2018-04-30T00:35:20.395Z,0.7
2018-04-30T00:36:22.011Z,0.4
2018-04-30T00:37:23.628Z,0.4
2018-04-30T00:38:25.241Z,1.2
2018-04-30T00:39:26.887Z,0.6
2018-04-30T00:40:28.464Z,0.6
2018-04-30T00:41:30.081Z,1.0
2018-04-30T00:42:31.694Z,0.4
2018-04-30T00:43:33.311Z,1.9
2018-04-30T00:44:34.999Z,0.7
2018-04-30T00:45:36.537Z,0.5
2018-04-30T00:46:38.154Z,0.4
2018-04-30T00:47:39.767Z,0.4
2018-04-30T00:48:41.382Z,0.8
2018-04-30T00:49:42.998Z,0.5
2018-04-30T00:50:44.615Z,0.4
2018-04-30T00:51:46.225Z,0.7
2018-04-30T00:52:47.844Z,0.7
2018-04-30T00:53:49.451Z,0.4
2018-04-30T00:54:51.071Z,1.0
2018-04-30T00:55:52.689Z,0.4
2018-04-30T00:56:54.304Z,0.4
2018-04-30T00:57:55.918Z,1.1
2018-04-30T00:58:57.529Z,0.5
2018-04-30T00:59:59.145Z,1.6
2018-04-30T01:01:00.756Z,0.6
2018-04-30T01:02:02.380Z,0.9
2018-04-30T01:03:03.989Z,0.4
2018-04-30T01:04:05.608Z,0.4
2018-04-30T01:05:07.223Z,0.9
2018-04-30T01:06:08.833Z,1.2
2018-04-30T01:07:10.447Z,0.4
2018-04-30T01:08:12.058Z,0.8
2018-04-30T01:09:13.677Z,0.8
2018-04-30T01:10:15.293Z,0.9
2018-04-30T01:11:16.903Z,1.6
2018-04-30T01:12:18.522Z,0.6
2018-04-30T01:13:20.138Z,0.4
2018-04-30T01:14:21.755Z,0.4
2018-04-30T01:15:23.365Z,0.4
2018-04-30T01:16:24.984Z,1.1
2018-04-30T01:17:26.592Z,0.7
2018-04-30T01:18:28.204Z,0.8
2018-04-30T01:19:29.825Z,1.3
2018-04-30T01:20:31.432Z,1.4
2018-04-30T01:21:33.051Z,0.4
2018-04-30T01:22:34.662Z,1.1
2018-04-30T01:23:36.277Z,0.4
2018-04-30T01:24:37.889Z,0.4
2018-04-30T01:25:39.507Z,0.5
2018-04-30T01:26:41.123Z,1.3
2018-04-30T01:27:42.732Z,0.4
2018-04-30T01:28:44.349Z,1.4
2018-04-30T01:29:45.966Z,0.7
2018-04-30T01:30:47.573Z,2.9
2018-04-30T01:31:49.195Z,1.1
2018-04-30T01:32:50.803Z,2.9
2018-04-30T01:33:52.423Z,0.8
2018-04-30T01:34:54.037Z,1.4
2018-04-30T01:35:55.648Z,1.2
2018-04-30T01:36:57.269Z,1.6
2018-04-30T01:37:58.881Z,1.3
2018-04-30T01:39:00.500Z,1.3
2018-04-30T01:40:02.110Z,1.6
2018-04-30T01:41:03.719Z,2.0
2018-04-30T01:42:05.335Z,1.2
2018-04-30T01:43:06.948Z,1.5
2018-04-30T01:44:08.562Z,1.3
2018-04-30T01:45:10.181Z,1.6
2018-04-30T01:46:11.795Z,1.9
2018-04-30T01:47:13.411Z,2.4
2018-04-30T01:48:15.023Z,1.8
2018-04-30T01:49:16.632Z,1.3
2018-04-30T01:50:18.249Z,1.0
2018-04-30T01:51:19.856Z,1.5
2018-04-30T01:52:21.473Z,1.7
2018-04-30T01:53:23.089Z,1.6
2018-04-30T01:54:24.701Z,2.5
2018-04-30T01:55:26.315Z,2.0
2018-04-30T01:56:27.931Z,1.7
2018-04-30T01:57:29.547Z,2.7
2018-04-30T01:58:31.157Z,1.4
2018-04-30T01:59:32.770Z,0.7
2018-04-30T02:00:34.381Z,2.1
2018-04-30T02:01:35.995Z,2.4
2018-04-30T02:02:37.615Z,1.3
2018-04-30T02:03:39.225Z,2.0
2018-04-30T02:04:40.840Z,1.4
2018-04-30T02:05:42.459Z,1.0
2018-04-30T02:06:44.064Z,2.3
2018-04-30T02:07:45.683Z,1.8
2018-04-30T02:08:47.293Z,2.6
2018-04-30T02:09:48.907Z,1.7
2018-04-30T02:10:50.520Z,1.2
2018-04-30T02:11:52.127Z,2.3
2018-04-30T02:12:53.744Z,1.0
2018-04-30T02:13:55.360Z,1.0
2018-04-30T02:14:56.971Z,1.3
2018-04-30T02:15:58.590Z,1.3
2018-04-30T02:17:00.200Z,1.5
2018-04-30T02:18:01.854Z,1.3
2018-04-30T02:19:03.469Z,1.2
2018-04-30T02:20:05.077Z,1.6
2018-04-30T02:21:06.693Z,1.1
2018-04-30T02:22:08.310Z,1.7
2018-04-30T02:23:09.921Z,1.1
2018-04-30T02:24:11.541Z,1.5
2018-04-30T02:25:13.150Z,1.6
2018-04-30T02:26:14.763Z,1.3
2018-04-30T02:27:16.380Z,1.8
2018-04-30T02:28:17.998Z,1.6
2018-04-30T02:29:19.607Z,2.6
2018-04-30T02:30:21.221Z,2.5
2018-04-30T02:31:22.840Z,1.4
2018-04-30T02:32:24.450Z,2.3
2018-04-30T02:33:26.132Z,1.6
2018-04-30T02:34:27.681Z,1.8
2018-04-30T02:35:29.297Z,1.6
2018-04-30T02:36:30.909Z,2.1
2018-04-30T02:37:32.526Z,2.4
2018-04-30T02:38:34.144Z,2.2
2018-04-30T02:39:35.754Z,2.4
2018-04-30T02:40:37.375Z,2.2
2018-04-30T02:41:38.982Z,2.8
2018-04-30T02:42:40.595Z,3.3
2018-04-30T02:43:42.217Z,2.8
2018-04-30T02:44:43.825Z,1.7
2018-04-30T02:45:45.446Z,3.1
2018-04-30T02:46:47.054Z,1.6
2018-04-30T02:47:48.674Z,1.6
2018-04-30T02:48:50.284Z,1.9
2018-04-30T02:49:51.894Z,1.1
2018-04-30T02:50:53.512Z,1.5
2018-04-30T02:51:55.127Z,1.3
2018-04-30T02:52:56.740Z,2.0
2018-04-30T02:53:58.353Z,1.9
2018-04-30T02:54:59.972Z,2.1
2018-04-30T02:56:01.579Z,3.6
2018-04-30T02:57:03.197Z,1.4
2018-04-30T02:58:04.810Z,1.7
2018-04-30T02:59:06.418Z,1.8
2018-04-30T03:00:08.039Z,1.6
2018-04-30T03:01:09.645Z,3.5
2018-04-30T03:02:11.260Z,2.5
2018-04-30T03:03:12.877Z,1.8
2018-04-30T03:04:14.488Z,1.5
2018-04-30T03:05:16.104Z,2.4
2018-04-30T03:06:17.720Z,2.9
2018-04-30T03:07:19.334Z,1.8
2018-04-30T03:08:20.950Z,1.1
2018-04-30T03:09:22.564Z,1.6
2018-04-30T03:10:24.175Z,3.8
2018-04-30T03:11:25.793Z,3.5
2018-04-30T03:12:27.407Z,2.3
2018-04-30T03:13:29.022Z,2.4
2018-04-30T03:14:30.640Z,1.7
2018-04-30T03:15:32.249Z,1.4
2018-04-30T03:16:33.864Z,1.9
2018-04-30T03:17:35.474Z,3.1
2018-04-30T03:18:37.088Z,2.8
2018-04-30T03:19:38.705Z,2.7
2018-04-30T03:20:40.318Z,1.9
2018-04-30T03:21:41.936Z,2.6
2018-04-30T03:22:43.544Z,3.3
2018-04-30T03:23:45.156Z,2.7
2018-04-30T03:24:46.777Z,1.1
2018-04-30T03:25:48.386Z,2.1
2018-04-30T03:26:49.994Z,1.8
2018-04-30T03:27:51.609Z,2.3
2018-04-30T03:28:53.225Z,3.3
2018-04-30T03:29:54.833Z,3.3
2018-04-30T03:30:56.452Z,3.0
2018-04-30T03:31:58.067Z,2.0
2018-04-30T03:32:59.677Z,2.5
2018-04-30T03:34:01.293Z,2.2
2018-04-30T03:35:02.904Z,4.7
2018-04-30T03:36:04.530Z,2.6
2018-04-30T03:37:06.136Z,1.7
2018-04-30T03:38:07.749Z,2.9
2018-04-30T03:39:09.373Z,1.3
2018-04-30T03:40:10.980Z,2.1
2018-04-30T03:41:12.595Z,2.7
2018-04-30T03:42:14.208Z,2.6
2018-04-30T03:43:15.825Z,2.9
2018-04-30T03:44:17.433Z,1.9
2018-04-30T03:45:19.044Z,3.4
2018-04-30T03:46:20.657Z,2.1
2018-04-30T03:47:22.266Z,3.1
2018-04-30T03:48:23.879Z,3.9
2018-04-30T03:49:25.497Z,2.4
2018-04-30T03:50:27.120Z,2.3
2018-04-30T03:51:28.726Z,3.2
2018-04-30T03:52:30.349Z,1.9
2018-04-30T03:53:31.957Z,2.7
2018-04-30T03:54:33.566Z,2.1
2018-04-30T03:55:35.179Z,2.1
2018-04-30T03:56:36.791Z,2.4
2018-04-30T03:57:38.410Z,2.6
2018-04-30T03:58:40.025Z,2.7
2018-04-30T03:59:41.637Z,2.7
2018-04-30T04:00:43.248Z,2.8
2018-04-30T04:01:44.863Z,2.3
2018-04-30T04:02:46.483Z,3.1
2018-04-30T04:03:48.099Z,2.8
2018-04-30T04:04:49.714Z,2.4
2018-04-30T04:05:51.329Z,2.6
2018-04-30T04:06:52.944Z,2.0
2018-04-30T04:07:54.556Z,3.5
2018-04-30T04:08:56.167Z,2.4
2018-04-30T04:09:57.789Z,2.5
2018-04-30T04:10:59.405Z,3.9
2018-04-30T04:12:01.022Z,2.9
2018-04-30T04:13:02.642Z,2.5
2018-04-30T04:14:04.248Z,2.2
2018-04-30T04:15:05.863Z,2.2
2018-04-30T04:16:07.479Z,3.7
2018-04-30T04:17:09.100Z,4.2
2018-04-30T04:18:10.714Z,1.5
2018-04-30T04:19:12.332Z,2.9
2018-04-30T04:20:13.946Z,3.5
2018-04-30T04:21:15.563Z,3.4
2018-04-30T04:22:17.182Z,4.1
2018-04-30T04:23:18.800Z,3.0
2018-04-30T04:24:20.415Z,2.6
2018-04-30T04:25:22.034Z,0.7
2018-04-30T04:26:23.652Z,2.3
2018-04-30T04:27:25.266Z,2.1
2018-04-30T04:28:26.886Z,3.9
2018-04-30T04:29:28.502Z,3.0
2018-04-30T04:30:30.118Z,3.5
2018-04-30T04:31:31.733Z,2.0
2018-04-30T04:32:33.356Z,2.0
2018-04-30T04:33:34.973Z,2.1
2018-04-30T04:34:36.591Z,2.4
2018-04-30T04:35:38.210Z,2.9
2018-04-30T04:36:39.822Z,1.5
2018-04-30T04:37:41.446Z,1.4
2018-04-30T04:38:43.058Z,2.5
2018-04-30T04:39:44.680Z,1.9
2018-04-30T04:40:46.294Z,1.2
2018-04-30T04:41:47.933Z,1.4
2018-04-30T04:42:49.529Z,2.9
2018-04-30T04:43:51.149Z,2.0
2018-04-30T04:44:52.762Z,2.7
2018-04-30T04:45:54.385Z,2.1
2018-04-30T04:46:55.997Z,1.6
2018-04-30T04:47:57.615Z,2.5
2018-04-30T04:48:59.233Z,3.5
2018-04-30T04:50:00.850Z,1.8
2018-04-30T04:51:02.464Z,3.3
2018-04-30T04:52:04.078Z,2.2
2018-04-30T04:53:05.695Z,3.0
2018-04-30T04:54:07.311Z,3.6
2018-04-30T04:55:08.934Z,2.1
2018-04-30T04:56:10.544Z,2.7
2018-04-30T04:57:12.164Z,1.2
2018-04-30T04:58:13.777Z,1.9
2018-04-30T04:59:15.399Z,2.1
2018-04-30T05:00:17.009Z,1.6
2018-04-30T05:01:18.635Z,1.9
2018-04-30T05:02:20.324Z,2.1
2018-04-30T05:03:21.866Z,2.6
2018-04-30T05:04:23.484Z,2.4
2018-04-30T05:05:25.097Z,3.1
2018-04-30T05:06:26.713Z,3.2
2018-04-30T05:07:28.330Z,2.0
2018-04-30T05:08:29.956Z,2.4
2018-04-30T05:09:31.573Z,1.3
2018-04-30T05:10:33.188Z,1.6
2018-04-30T05:11:34.807Z,1.4
2018-04-30T05:12:36.420Z,1.6
2018-04-30T05:13:38.041Z,1.6
2018-04-30T05:14:39.661Z,2.0
2018-04-30T05:15:41.279Z,14.9
2018-04-30T05:16:42.900Z,3.8
2018-04-30T05:17:44.517Z,2.3
2018-04-30T05:18:46.149Z,1.7
2018-04-30T05:19:47.749Z,1.9
2018-04-30T05:20:49.391Z,2.1
2018-04-30T05:21:50.979Z,1.1
2018-04-30T05:22:52.595Z,2.1
2018-04-30T05:23:54.217Z,2.6
2018-04-30T05:24:55.834Z,2.2
2018-04-30T05:25:57.446Z,1.7
2018-04-30T05:26:59.064Z,1.4
2018-04-30T05:28:00.686Z,1.3
2018-04-30T05:29:02.301Z,0.4
2018-04-30T05:30:03.921Z,2.2
2018-04-30T05:31:05.537Z,0.7
2018-04-30T05:32:07.155Z,1.2
2018-04-30T05:33:08.768Z,1.1
2018-04-30T05:34:10.387Z,1.2
2018-04-30T05:35:12.003Z,2.4
2018-04-30T05:36:13.624Z,3.0
2018-04-30T05:37:15.238Z,7.2
2018-04-30T05:38:16.854Z,4.5
2018-04-30T05:39:18.473Z,0.6
2018-04-30T05:40:20.092Z,1.3
2018-04-30T05:41:21.714Z,1.5
2018-04-30T05:42:23.331Z,1.0
2018-04-30T05:43:24.947Z,0.8
2018-04-30T05:44:26.566Z,1.6
2018-04-30T05:45:28.188Z,0.6
2018-04-30T05:46:29.803Z,0.8
2018-04-30T05:47:31.423Z,1.2
2018-04-30T05:48:33.037Z,1.1
2018-04-30T05:49:34.656Z,0.7
2018-04-30T05:50:36.279Z,1.0
2018-04-30T05:51:37.899Z,0.4
2018-04-30T05:52:39.520Z,0.5
2018-04-30T05:53:41.138Z,0.8
2018-04-30T05:54:42.762Z,0.4
2018-04-30T05:55:44.378Z,0.7
2018-04-30T05:56:45.994Z,0.8
2018-04-30T05:57:47.617Z,0.5
2018-04-30T05:58:49.233Z,0.5
2018-04-30T05:59:50.850Z,1.3
2018-04-30T06:00:52.475Z,0.4
2018-04-30T06:01:54.096Z,0.4
2018-04-30T06:02:55.709Z,0.4
2018-04-30T06:03:57.326Z,0.6
2018-04-30T06:04:58.950Z,0.5
2018-04-30T06:06:00.564Z,0.4
2018-04-30T06:07:02.188Z,0.4
2018-04-30T06:08:03.805Z,0.6
2018-04-30T06:09:05.420Z,0.9
2018-04-30T06:10:07.039Z,0.4
2018-04-30T06:11:08.660Z,0.4
2018-04-30T06:12:10.354Z,0.4
2018-04-30T06:13:11.893Z,0.4
2018-04-30T06:14:13.519Z,0.7
2018-04-30T06:15:15.194Z,0.4
2018-04-30T06:16:16.749Z,0.4
2018-04-30T06:17:18.377Z,0.6
2018-04-30T06:18:19.983Z,0.4
2018-04-30T06:19:21.605Z,0.5
2018-04-30T06:20:23.230Z,0.4
2018-04-30T06:21:24.846Z,0.5
2018-04-30T06:22:26.467Z,0.4
2018-04-30T06:23:28.082Z,0.4
2018-04-30T06:24:29.699Z,0.4
2018-04-30T06:25:31.321Z,0.4
2018-04-30T06:26:32.957Z,0.4
2018-04-30T06:27:34.556Z,0.4
2018-04-30T06:28:36.178Z,0.5
2018-04-30T06:29:37.790Z,0.4
2018-04-30T06:30:39.411Z,0.4
2018-04-30T06:31:41.023Z,0.4
2018-04-30T06:32:42.643Z,0.5
2018-04-30T06:33:44.263Z,0.4
2018-04-30T06:34:45.881Z,0.4
2018-04-30T06:35:47.521Z,0.5
2018-04-30T06:36:49.124Z,0.4
2018-04-30T06:37:50.744Z,0.8
2018-04-30T06:38:52.360Z,0.4
2018-04-30T06:39:53.974Z,0.4
2018-04-30T06:40:55.593Z,0.4
2018-04-30T06:41:57.217Z,0.5
2018-04-30T06:42:58.836Z,0.4
2018-04-30T06:44:00.456Z,0.8
2018-04-30T06:45:02.071Z,1.1
2018-04-30T06:46:03.684Z,0.5
2018-04-30T06:47:05.304Z,0.5
2018-04-30T06:48:06.928Z,0.4
2018-04-30T06:49:08.543Z,0.4
2018-04-30T06:50:10.167Z,0.4
2018-04-30T06:51:11.774Z,0.4
2018-04-30T06:52:13.397Z,0.6
2018-04-30T06:53:15.016Z,0.9
2018-04-30T06:54:16.632Z,0.5
2018-04-30T06:55:18.252Z,0.4
2018-04-30T06:56:19.873Z,0.6
2018-04-30T06:57:21.498Z,0.4
2018-04-30T06:58:23.109Z,1.8
2018-04-30T06:59:24.723Z,0.4
2018-04-30T07:00:26.443Z,0.6
2018-04-30T07:01:27.960Z,0.4
2018-04-30T07:02:29.578Z,0.4
2018-04-30T07:03:31.198Z,0.5
2018-04-30T07:04:32.816Z,0.4
2018-04-30T07:05:34.429Z,0.6
2018-04-30T07:06:36.054Z,1.5
2018-04-30T07:07:37.669Z,0.4
2018-04-30T07:08:39.292Z,0.6
2018-04-30T07:09:41.112Z,0.4
2018-04-30T07:10:42.529Z,0.4
2018-04-30T07:11:44.152Z,0.4
2018-04-30T07:12:45.766Z,0.6
2018-04-30T07:13:47.383Z,0.7
2018-04-30T07:14:49.005Z,0.4
2018-04-30T07:15:50.631Z,0.4
2018-04-30T07:16:52.243Z,0.7
2018-04-30T07:17:53.866Z,0.5
2018-04-30T07:18:55.483Z,0.4
2018-04-30T07:19:57.106Z,0.4
2018-04-30T07:20:58.718Z,0.4
2018-04-30T07:22:00.335Z,0.4
2018-04-30T07:23:01.957Z,0.4
2018-04-30T07:24:03.584Z,0.4
2018-04-30T07:25:05.196Z,0.5
2018-04-30T07:26:06.811Z,0.4
2018-04-30T07:27:08.436Z,0.4
2018-04-30T07:28:10.056Z,0.4
2018-04-30T07:29:11.671Z,0.4
2018-04-30T07:30:13.295Z,0.4
2018-04-30T07:31:14.912Z,0.4
2018-04-30T07:32:16.531Z,0.4
2018-04-30T07:33:18.171Z,0.4
2018-04-30T07:34:19.763Z,0.4
2018-04-30T07:35:21.386Z,0.5
2018-04-30T07:36:24.449Z,0.4
2018-04-30T07:37:26.067Z,0.4
2018-04-30T07:38:27.689Z,0.6
2018-04-30T07:39:29.313Z,0.5
2018-04-30T07:40:30.936Z,0.4
2018-04-30T07:41:32.548Z,0.4
2018-04-30T07:42:34.164Z,0.4
2018-04-30T07:43:35.785Z,0.4
2018-04-30T07:44:37.397Z,0.4
2018-04-30T07:45:39.022Z,0.4
2018-04-30T07:46:40.644Z,0.4
2018-04-30T07:47:42.260Z,0.4
2018-04-30T07:48:43.879Z,0.4
2018-04-30T07:49:45.503Z,0.4
2018-04-30T07:50:47.112Z,0.4
2018-04-30T07:51:48.740Z,0.4
2018-04-30T07:52:50.354Z,0.6
2018-04-30T07:53:51.975Z,0.5
2018-04-30T07:54:53.596Z,0.4
2018-04-30T07:55:55.239Z,0.5
2018-04-30T07:56:56.830Z,0.7
2018-04-30T07:57:58.450Z,0.4
2018-04-30T07:59:00.072Z,0.5
2018-04-30T08:00:01.687Z,0.4
2018-04-30T08:01:03.304Z,0.4
2018-04-30T08:02:04.930Z,0.4
2018-04-30T08:03:06.555Z,0.5
2018-04-30T08:04:08.163Z,0.4
2018-04-30T08:05:09.784Z,0.4
2018-04-30T08:06:11.399Z,0.4
2018-04-30T08:07:13.015Z,0.6
2018-04-30T08:08:14.635Z,0.4
2018-04-30T08:09:16.342Z,0.5
2018-04-30T08:10:17.879Z,0.5
2018-04-30T08:11:19.491Z,0.4
2018-04-30T08:12:21.112Z,0.4
2018-04-30T08:13:22.726Z,0.4
2018-04-30T08:14:24.351Z,0.5
2018-04-30T08:15:25.966Z,0.5
2018-04-30T08:16:27.590Z,0.4
2018-04-30T08:17:29.204Z,0.4
2018-04-30T08:18:30.826Z,0.5
2018-04-30T08:19:32.440Z,0.4
2018-04-30T08:20:34.061Z,0.4
2018-04-30T08:21:35.752Z,1.2
2018-04-30T08:22:37.302Z,0.6
2018-04-30T08:23:38.931Z,0.4
2018-04-30T08:24:40.541Z,0.5
2018-04-30T08:25:42.160Z,0.5
2018-04-30T08:26:43.779Z,0.4
2018-04-30T08:27:45.402Z,0.5
2018-04-30T08:28:47.019Z,0.4
2018-04-30T08:29:48.641Z,0.9
2018-04-30T08:30:50.258Z,0.4
2018-04-30T08:31:51.873Z,0.4
2018-04-30T08:32:53.494Z,0.4
2018-04-30T08:33:55.115Z,0.4
2018-04-30T08:34:56.728Z,0.4
2018-04-30T08:35:58.351Z,0.4
2018-04-30T08:36:59.966Z,0.4
2018-04-30T08:38:01.589Z,0.4
2018-04-30T08:39:03.207Z,0.4
2018-04-30T08:40:04.819Z,0.4
2018-04-30T08:41:06.443Z,0.6
2018-04-30T08:42:08.059Z,0.4
2018-04-30T08:43:09.679Z,0.4
2018-04-30T08:44:11.304Z,0.5
2018-04-30T08:45:12.924Z,0.5
2018-04-30T08:46:14.536Z,0.4
2018-04-30T08:47:16.159Z,0.4
2018-04-30T08:48:17.775Z,0.4
2018-04-30T08:49:19.394Z,0.8
2018-04-30T08:50:21.011Z,0.4
2018-04-30T08:51:22.635Z,0.4
2018-04-30T08:52:24.257Z,0.4
2018-04-30T08:53:25.868Z,0.5
2018-04-30T08:54:27.483Z,0.4
2018-04-30T08:55:29.100Z,0.4
2018-04-30T08:56:30.717Z,0.4
2018-04-30T08:57:32.341Z,0.6
2018-04-30T08:58:33.999Z,0.4
2018-04-30T08:59:35.574Z,0.4
2018-04-30T09:00:37.211Z,0.5
2018-04-30T09:01:38.813Z,1.0
2018-04-30T09:02:40.433Z,0.4
2018-04-30T09:03:42.048Z,0.4
2018-04-30T09:04:43.667Z,0.4
2018-04-30T09:05:45.287Z,0.4
2018-04-30T09:06:46.903Z,0.5
2018-04-30T09:07:48.522Z,0.4
2018-04-30T09:08:50.142Z,0.4
2018-04-30T09:09:51.753Z,0.6
2018-04-30T09:10:53.374Z,0.4
2018-04-30T09:11:54.989Z,0.4
2018-04-30T09:12:56.611Z,0.4
2018-04-30T09:13:58.229Z,0.4
2018-04-30T09:14:59.863Z,0.4
2018-04-30T09:16:01.466Z,0.4
2018-04-30T09:17:03.080Z,0.4
2018-04-30T09:18:04.700Z,0.4
2018-04-30T09:19:06.321Z,1.0
2018-04-30T09:20:07.936Z,0.5
2018-04-30T09:21:09.554Z,0.4
2018-04-30T09:22:11.175Z,0.4
2018-04-30T09:23:12.792Z,1.2
2018-04-30T09:24:14.410Z,0.4
2018-04-30T09:25:16.031Z,0.7
2018-04-30T09:26:17.644Z,0.4
2018-04-30T09:27:19.267Z,0.5
2018-04-30T09:28:20.880Z,0.4
2018-04-30T09:29:22.500Z,0.7
2018-04-30T09:30:24.120Z,0.5
2018-04-30T09:31:25.738Z,0.6
2018-04-30T09:32:27.361Z,0.8
2018-04-30T09:33:28.986Z,0.4
2018-04-30T09:34:30.601Z,0.4
2018-04-30T09:35:32.228Z,0.4
2018-04-30T09:36:33.843Z,0.5
2018-04-30T09:37:35.465Z,0.4
2018-04-30T09:38:37.080Z,0.4
2018-04-30T09:39:38.696Z,0.4
2018-04-30T09:40:40.321Z,0.4
2018-04-30T09:41:41.941Z,0.4
2018-04-30T09:42:43.565Z,0.4
2018-04-30T09:43:45.182Z,0.4
2018-04-30T09:44:46.808Z,1.2
2018-04-30T09:45:48.424Z,0.4
2018-04-30T09:46:50.047Z,0.5
2018-04-30T09:47:51.659Z,0.4
2018-04-30T09:48:53.283Z,0.7
2018-04-30T09:49:54.901Z,0.4
2018-04-30T09:50:56.517Z,0.4
2018-04-30T09:51:58.136Z,0.4
2018-04-30T09:52:59.752Z,0.4
2018-04-30T09:54:01.374Z,0.5
2018-04-30T09:55:02.991Z,0.4
2018-04-30T09:56:04.610Z,0.4
2018-04-30T09:57:06.236Z,0.6
2018-04-30T09:58:07.850Z,0.6
2018-04-30T09:59:09.472Z,0.4
2018-04-30T10:00:11.094Z,0.4
2018-04-30T10:01:12.708Z,0.4
2018-04-30T10:02:14.328Z,0.4
2018-04-30T10:03:15.948Z,1.5
2018-04-30T10:04:17.577Z,0.4
2018-04-30T10:05:19.191Z,0.9
2018-04-30T10:06:20.803Z,0.4
2018-04-30T10:07:22.510Z,0.4
2018-04-30T10:08:24.046Z,0.4
2018-04-30T10:09:25.671Z,0.4
2018-04-30T10:10:27.292Z,0.4
2018-04-30T10:11:28.921Z,0.4
2018-04-30T10:12:30.539Z,0.4
2018-04-30T10:13:32.157Z,0.4
2018-04-30T10:14:33.780Z,0.4
2018-04-30T10:15:35.398Z,0.4
2018-04-30T10:16:37.022Z,0.5
2018-04-30T10:17:38.664Z,0.4
2018-04-30T10:18:40.265Z,0.6
2018-04-30T10:19:41.888Z,0.4
2018-04-30T10:20:43.519Z,0.5
2018-04-30T10:21:45.141Z,0.4
2018-04-30T10:22:46.764Z,0.4
2018-04-30T10:23:48.483Z,0.4
2018-04-30T10:24:50.018Z,0.7
2018-04-30T10:25:51.638Z,0.4
2018-04-30T10:26:53.258Z,0.4
2018-04-30T10:27:54.886Z,0.9
2018-04-30T10:28:56.508Z,0.5
2018-04-30T10:29:58.136Z,0.4
2018-04-30T10:30:59.765Z,0.4
2018-04-30T10:32:01.388Z,0.5
2018-04-30T10:33:03.015Z,0.4
2018-04-30T10:34:04.641Z,0.5
2018-04-30T10:35:06.265Z,0.4
2018-04-30T10:36:07.889Z,0.4
2018-04-30T10:37:09.515Z,1.0
2018-04-30T10:38:11.144Z,0.5
2018-04-30T10:39:12.771Z,0.5
2018-04-30T10:40:14.408Z,0.5
2018-04-30T10:41:16.036Z,0.5
2018-04-30T10:42:17.668Z,0.5
2018-04-30T10:43:19.303Z,0.4
2018-04-30T10:44:20.952Z,1.0
2018-04-30T10:45:22.563Z,0.7
2018-04-30T10:46:24.194Z,0.6
2018-04-30T10:47:25.825Z,0.9
2018-04-30T10:48:27.462Z,0.5
2018-04-30T10:49:29.091Z,0.5
2018-04-30T10:50:30.729Z,0.4
2018-04-30T10:51:32.416Z,0.4
2018-04-30T10:52:33.991Z,0.5
2018-04-30T10:53:35.629Z,0.4
2018-04-30T10:54:37.256Z,0.5
2018-04-30T10:55:38.885Z,0.6
2018-04-30T10:56:40.525Z,0.8
2018-04-30T10:57:42.142Z,0.7
2018-04-30T10:58:43.778Z,0.4
2018-04-30T10:59:45.404Z,0.5
2018-04-30T11:00:47.034Z,0.7
2018-04-30T11:01:48.667Z,0.6
2018-04-30T11:02:50.291Z,0.4
2018-04-30T11:03:51.918Z,0.5
2018-04-30T11:04:53.548Z,0.8
2018-04-30T11:05:55.174Z,0.4
2018-04-30T11:06:56.804Z,0.4
2018-04-30T11:07:58.436Z,0.4
2018-04-30T11:09:00.061Z,0.5
2018-04-30T11:10:01.693Z,0.4
2018-04-30T11:11:03.324Z,0.5
2018-04-30T11:12:04.941Z,0.5
2018-04-30T11:13:06.574Z,0.6
2018-04-30T11:14:08.195Z,0.5
2018-04-30T11:15:09.826Z,0.4
2018-04-30T11:16:11.456Z,0.5
2018-04-30T11:17:13.074Z,0.7
2018-04-30T11:18:14.696Z,0.6
2018-04-30T11:19:16.313Z,0.5
2018-04-30T11:20:17.938Z,0.5
2018-04-30T11:21:19.565Z,0.4
2018-04-30T11:22:21.190Z,0.6
2018-04-30T11:23:22.812Z,0.4
2018-04-30T11:24:24.431Z,0.4
2018-04-30T11:25:26.047Z,0.5
2018-04-30T11:26:27.673Z,0.7
2018-04-30T11:27:29.299Z,0.4
2018-04-30T11:28:30.915Z,0.4
2018-04-30T11:29:32.543Z,0.6
2018-04-30T11:30:34.158Z,0.5
2018-04-30T11:31:35.781Z,0.6
2018-04-30T11:32:37.402Z,0.7
2018-04-30T11:33:39.019Z,0.7
2018-04-30T11:34:40.644Z,0.4
2018-04-30T11:35:42.260Z,0.7
2018-04-30T11:36:43.881Z,0.6
2018-04-30T11:37:45.505Z,0.4
2018-04-30T11:38:47.120Z,0.4
2018-04-30T11:39:48.741Z,0.4
2018-04-30T11:40:50.358Z,1.0
2018-04-30T11:41:51.978Z,0.6
2018-04-30T11:42:53.607Z,0.4
2018-04-30T11:43:55.217Z,0.4
2018-04-30T11:44:56.840Z,0.4
2018-04-30T11:45:58.457Z,0.4
2018-04-30T11:47:00.085Z,0.4
2018-04-30T11:48:01.702Z,0.8
2018-04-30T11:49:03.319Z,0.5
2018-04-30T11:50:04.939Z,1.0
2018-04-30T11:51:06.560Z,0.5
2018-04-30T11:52:08.184Z,0.4
2018-04-30T11:53:09.807Z,0.4
2018-04-30T11:54:11.425Z,0.4
2018-04-30T11:55:13.045Z,0.7
2018-04-30T11:56:14.672Z,0.5
2018-04-30T11:57:16.295Z,0.5
2018-04-30T11:58:17.917Z,0.4
2018-04-30T11:59:19.545Z,0.9
2018-04-30T12:00:21.164Z,0.5
2018-04-30T12:01:22.785Z,0.5
2018-04-30T12:02:24.426Z,0.7
2018-04-30T12:03:26.036Z,0.5
2018-04-30T12:04:27.655Z,0.8
2018-04-30T12:05:29.279Z,0.7
2018-04-30T12:06:30.906Z,0.6
2018-04-30T12:07:32.531Z,0.8
2018-04-30T12:08:34.155Z,0.5
2018-04-30T12:09:35.784Z,0.4
2018-04-30T12:10:37.404Z,0.7
2018-04-30T12:11:39.034Z,0.4
2018-04-30T12:12:40.657Z,0.6
2018-04-30T12:13:42.285Z,0.4
2018-04-30T12:14:43.907Z,0.4
2018-04-30T12:15:45.533Z,0.8
2018-04-30T12:16:47.154Z,0.8
2018-04-30T12:17:48.779Z,1.0
2018-04-30T12:18:50.405Z,0.7
2018-04-30T12:19:52.031Z,0.5
2018-04-30T12:20:53.654Z,0.8
2018-04-30T12:21:55.291Z,0.5
2018-04-30T12:22:56.901Z,0.4
2018-04-30T12:23:58.528Z,0.4
2018-04-30T12:25:00.152Z,0.5
2018-04-30T12:26:01.774Z,0.8
2018-04-30T12:27:03.401Z,0.9
2018-04-30T12:28:05.027Z,0.6
2018-04-30T12:29:06.650Z,0.5
2018-04-30T12:30:08.278Z,0.6
2018-04-30T12:31:09.908Z,0.6
2018-04-30T12:32:11.526Z,0.6
2018-04-30T12:33:13.150Z,0.7
2018-04-30T12:34:14.781Z,0.5
2018-04-30T12:35:16.406Z,0.6
2018-04-30T12:36:18.034Z,0.5
2018-04-30T12:37:19.655Z,0.7
2018-04-30T12:38:21.285Z,0.7
2018-04-30T12:39:22.906Z,0.5
2018-04-30T12:40:24.531Z,1.0
2018-04-30T12:41:26.166Z,1.0
2018-04-30T12:42:27.789Z,1.9
2018-04-30T12:43:29.418Z,0.8
2018-04-30T12:44:31.046Z,0.8
2018-04-30T12:45:32.669Z,0.7
2018-04-30T12:46:34.299Z,0.8
2018-04-30T12:47:35.928Z,0.9
2018-04-30T12:48:37.559Z,1.0
2018-04-30T12:49:39.217Z,0.5
2018-04-30T12:50:40.837Z,0.8
2018-04-30T12:51:42.432Z,0.4
2018-04-30T12:52:44.057Z,0.7
2018-04-30T12:53:45.676Z,0.5
2018-04-30T12:54:47.298Z,0.6
2018-04-30T12:55:48.930Z,0.6
2018-04-30T12:56:50.555Z,0.9
2018-04-30T12:57:52.172Z,0.6
2018-04-30T12:58:53.802Z,1.0
2018-04-30T12:59:55.418Z,0.6
2018-04-30T13:00:57.047Z,0.5
2018-04-30T13:01:58.671Z,0.7
2018-04-30T13:03:00.296Z,0.6
2018-04-30T13:04:01.919Z,0.6
2018-04-30T13:05:03.537Z,0.7
2018-04-30T13:06:05.170Z,0.5
2018-04-30T13:07:06.783Z,0.5
2018-04-30T13:08:08.412Z,0.7
2018-04-30T13:09:10.120Z,0.9
2018-04-30T13:10:11.663Z,0.5
2018-04-30T13:11:13.290Z,0.5
2018-04-30T13:12:14.910Z,0.8
2018-04-30T13:13:16.538Z,0.9
2018-04-30T13:14:18.156Z,0.8
2018-04-30T13:15:19.855Z,0.6
2018-04-30T13:16:21.404Z,0.8
2018-04-30T13:17:23.029Z,0.7
2018-04-30T13:18:24.659Z,0.7
2018-04-30T13:19:26.276Z,0.5
2018-04-30T13:20:27.899Z,0.8
2018-04-30T13:21:29.525Z,1.0
2018-04-30T13:22:31.156Z,0.6
2018-04-30T13:23:32.775Z,1.1
2018-04-30T13:24:34.405Z,0.8
2018-04-30T13:25:36.031Z,0.7
2018-04-30T13:26:37.652Z,0.7
2018-04-30T13:27:39.281Z,0.7
2018-04-30T13:28:40.989Z,0.6
2018-04-30T13:29:42.535Z,0.7
2018-04-30T13:30:44.155Z,0.6
2018-04-30T13:31:45.780Z,0.8
2018-04-30T13:32:47.411Z,0.7
2018-04-30T13:33:49.035Z,1.0
2018-04-30T13:34:50.658Z,0.6
2018-04-30T13:35:52.284Z,1.1
2018-04-30T13:36:53.908Z,0.7
2018-04-30T13:37:55.538Z,0.5
2018-04-30T13:38:57.168Z,0.8
2018-04-30T13:39:58.792Z,0.7
2018-04-30T13:41:00.419Z,0.7
2018-04-30T13:42:02.048Z,0.6
2018-04-30T13:43:03.665Z,0.6
2018-04-30T13:44:05.296Z,0.7
2018-04-30T13:45:06.919Z,0.5
2018-04-30T13:46:08.547Z,0.5
2018-04-30T13:47:10.168Z,0.6
2018-04-30T13:48:11.788Z,0.6
2018-04-30T13:49:13.414Z,0.7
2018-04-30T13:50:15.037Z,0.7
2018-04-30T13:51:16.658Z,0.6
2018-04-30T13:52:18.279Z,0.9
2018-04-30T13:53:19.903Z,0.5
2018-04-30T13:54:21.530Z,0.5
2018-04-30T13:55:23.150Z,0.5
2018-04-30T13:56:24.772Z,0.4
2018-04-30T13:57:26.394Z,0.7
2018-04-30T13:58:28.017Z,0.7
2018-04-30T13:59:29.635Z,0.5
2018-04-30T14:00:31.259Z,0.5
2018-04-30T14:01:32.882Z,0.6
2018-04-30T14:02:34.505Z,0.5
2018-04-30T14:03:36.123Z,0.9
2018-04-30T14:04:37.746Z,0.5
2018-04-30T14:05:39.363Z,0.7
2018-04-30T14:06:40.984Z,0.9
2018-04-30T14:07:42.602Z,1.0
2018-04-30T14:08:44.227Z,0.5